Terminal Aerodrome Forecast
Issued by NWS San Angelo, TX

Home | Current Version | Previous Version | Text Only | Print | Product List | Glossary On
Versions: 1 2 3 4 5 6 7 8 9 10 11 12 13 14
000
FTUS44 KSJT 030500
TAFABI
TAF
KABI 030520Z 0306/0406 16010KT P6SM SKC
     FM031500 18014G21KT P6SM SKC
     FM040100 16011KT P6SM SKC=

USA.gov is the U.S. government's official web portal to all federal, state and local government web resources and services.